createdAt,value
2019-01-26T00:02:26.373Z,18.63
2019-01-26T00:11:26.906Z,21.73
2019-01-26T00:13:57.243Z,18.70
2019-01-26T00:16:27.624Z,18.57
2019-01-26T00:18:58.126Z,17.77
2019-01-26T00:21:28.420Z,17.27
2019-01-26T00:24:17.649Z,17.33
2019-01-26T00:26:48.015Z,18.40
2019-01-26T00:29:18.417Z,19.10
2019-01-26T00:34:55.595Z,18.30
2019-01-26T00:37:25.990Z,18.53
2019-01-26T00:39:56.355Z,19.80
2019-01-26T00:42:27.573Z,20.50
2019-01-26T00:44:57.841Z,19.70
2019-01-26T00:47:28.149Z,18.63
2019-01-26T00:52:54.122Z,19.90
2019-01-26T00:55:24.396Z,17.67
2019-01-26T00:57:54.689Z,19.37
2019-01-26T01:00:25.081Z,17.63
2019-01-26T01:02:55.442Z,19.07
2019-01-26T01:05:25.733Z,21.87
2019-01-26T01:07:56.063Z,21.90
2019-01-26T01:13:36.577Z,21.60
2019-01-26T01:16:18.606Z,21.97
2019-01-26T01:18:48.959Z,20.00
2019-01-26T01:21:19.191Z,18.70
2019-01-26T01:23:49.486Z,17.83
2019-01-26T01:26:20.030Z,18.40
2019-01-26T01:28:50.308Z,19.33
2019-01-26T01:31:20.660Z,21.57
2019-01-26T01:34:04.835Z,18.53
2019-01-26T01:39:17.747Z,20.77
2019-01-26T01:41:47.998Z,20.77
2019-01-26T01:44:37.469Z,19.37
2019-01-26T01:47:07.895Z,18.30
2019-01-26T01:49:38.319Z,19.87
2019-01-26T01:52:10.655Z,17.63
2019-01-26T01:55:18.878Z,19.10
2019-01-26T01:57:49.270Z,19.70
2019-01-26T02:03:04.939Z,18.13
2019-01-26T02:05:35.253Z,18.70
2019-01-26T02:08:05.583Z,17.13
2019-01-26T02:13:34.113Z,17.17
2019-01-26T02:16:24.726Z,18.80
2019-01-26T02:21:58.928Z,18.17
2019-01-26T02:24:29.375Z,18.87
2019-01-26T02:26:59.709Z,16.47
2019-01-26T02:33:04.829Z,18.60
2019-01-26T02:35:35.183Z,17.27
2019-01-26T02:38:05.545Z,17.00
2019-01-26T02:40:35.810Z,20.07
2019-01-26T02:45:50.236Z,17.67
2019-01-26T02:48:20.566Z,18.27
2019-01-26T02:50:50.944Z,18.37
2019-01-26T02:53:21.280Z,18.67
2019-01-26T02:55:51.652Z,16.73
2019-01-26T02:58:22.318Z,17.63
2019-01-26T03:00:52.911Z,18.63
2019-01-26T03:03:23.207Z,19.10
2019-01-26T03:05:53.800Z,16.87
2019-01-26T03:08:24.121Z,17.77
2019-01-26T03:10:56.237Z,19.83
2019-01-26T03:13:26.585Z,19.77
2019-01-26T03:15:57.022Z,20.70
2019-01-26T03:18:27.262Z,18.10
2019-01-26T03:20:57.593Z,19.90
2019-01-26T03:23:27.885Z,20.37
2019-01-26T03:31:44.157Z,19.97
2019-01-26T03:34:14.518Z,21.17
2019-01-26T03:36:44.799Z,19.90
2019-01-26T03:42:23.407Z,20.67
2019-01-26T03:44:53.736Z,20.73
2019-01-26T03:47:26.726Z,20.43
2019-01-26T03:49:57.036Z,21.53
2019-01-26T03:52:27.345Z,22.03
2019-01-26T03:54:57.632Z,22.43
2019-01-26T03:57:27.983Z,22.27
2019-01-26T03:59:58.357Z,21.83
2019-01-26T04:05:21.848Z,23.27
2019-01-26T04:07:52.364Z,21.77
2019-01-26T04:13:59.698Z,21.40
2019-01-26T04:16:30.052Z,20.77
2019-01-26T04:19:00.343Z,20.27
2019-01-26T04:21:30.630Z,23.67
2019-01-26T04:24:07.045Z,24.07
2019-01-26T04:26:37.407Z,21.13
2019-01-26T04:29:07.649Z,21.53
2019-01-26T04:31:38.071Z,22.10
2019-01-26T04:37:15.364Z,20.03
2019-01-26T04:39:48.123Z,20.53
2019-01-26T04:42:20.513Z,20.37
2019-01-26T04:44:50.804Z,19.10
2019-01-26T04:47:21.341Z,21.73
2019-01-26T04:49:52.001Z,17.10
2019-01-26T04:52:35.257Z,13.97
2019-01-26T04:57:49.488Z,12.87
2019-01-26T05:00:28.536Z,15.27
2019-01-26T05:02:59.282Z,12.20
2019-01-26T05:05:29.603Z,12.93
2019-01-26T05:07:59.936Z,12.13
2019-01-26T05:10:30.311Z,11.63
2019-01-26T05:13:00.568Z,11.83
2019-01-26T05:15:31.120Z,11.13
2019-01-26T05:18:01.758Z,11.87
2019-01-26T05:20:32.286Z,11.50
2019-01-26T05:23:02.602Z,9.97
2019-01-26T05:25:58.723Z,10.40
2019-01-26T05:28:29.342Z,11.20
2019-01-26T05:30:59.717Z,10.87
2019-01-26T05:33:30.904Z,11.10
2019-01-26T05:36:01.355Z,12.20
2019-01-26T05:38:31.595Z,9.93
2019-01-26T05:41:02.030Z,11.90
2019-01-26T05:43:32.333Z,10.40
2019-01-26T05:46:02.605Z,11.33
2019-01-26T05:48:32.934Z,11.07
2019-01-26T05:53:59.629Z,9.80
2019-01-26T05:56:48.332Z,10.87
2019-01-26T05:59:18.619Z,9.70
2019-01-26T06:02:07.882Z,9.50
2019-01-26T06:04:38.180Z,10.27
2019-01-26T06:07:08.549Z,10.33
2019-01-26T06:09:39.011Z,10.27
2019-01-26T06:15:15.581Z,9.00
2019-01-26T06:17:46.061Z,9.93
2019-01-26T06:20:16.503Z,9.97
2019-01-26T06:22:47.168Z,8.97
2019-01-26T06:25:18.018Z,9.93
2019-01-26T06:27:48.615Z,9.73
2019-01-26T06:30:39.389Z,9.27
2019-01-26T06:33:09.674Z,8.83
2019-01-26T06:35:39.943Z,8.67
2019-01-26T06:38:10.271Z,9.70
2019-01-26T06:40:59.651Z,9.67
2019-01-26T06:43:30.005Z,9.57
2019-01-26T06:46:00.277Z,10.23
2019-01-26T06:48:30.527Z,9.17
2019-01-26T06:51:00.869Z,9.33
2019-01-26T06:53:31.123Z,9.23
2019-01-26T06:56:01.379Z,8.60
2019-01-26T07:01:26.619Z,8.97
2019-01-26T07:03:57.002Z,7.80
2019-01-26T07:10:09.235Z,8.63
2019-01-26T07:12:39.818Z,8.47
2019-01-26T07:15:11.309Z,9.57
2019-01-26T07:17:41.517Z,8.60
2019-01-26T07:20:12.028Z,8.83
2019-01-26T07:22:42.320Z,8.80
2019-01-26T07:25:12.666Z,9.50
2019-01-26T07:27:43.011Z,7.17
2019-01-26T07:30:15.355Z,8.27
2019-01-26T07:43:44.795Z,8.43
2019-01-26T07:46:15.043Z,7.23
2019-01-26T07:48:45.392Z,7.17
2019-01-26T07:51:15.722Z,6.93
2019-01-26T07:53:47.325Z,7.17
2019-01-26T07:56:31.448Z,6.27
2019-01-26T07:59:01.724Z,6.30
2019-01-26T08:04:27.607Z,7.03
2019-01-26T08:06:57.897Z,7.00
2019-01-26T08:09:28.192Z,6.80
2019-01-26T08:11:58.517Z,6.43
2019-01-26T08:14:28.707Z,6.53
2019-01-26T08:16:58.943Z,6.53
2019-01-26T08:19:29.204Z,6.17
2019-01-26T08:24:50.428Z,6.37
2019-01-26T08:27:20.790Z,6.33
2019-01-26T08:29:51.113Z,6.97
2019-01-26T08:32:21.424Z,6.13
2019-01-26T08:34:51.670Z,5.77
2019-01-26T08:37:21.994Z,6.17
2019-01-26T08:39:52.244Z,6.27
2019-01-26T08:42:22.477Z,5.70
2019-01-26T08:47:40.432Z,6.40
2019-01-26T08:50:21.838Z,5.10
2019-01-26T08:52:53.135Z,5.50
2019-01-26T08:55:23.606Z,4.97
2019-01-26T08:57:53.987Z,5.27
2019-01-26T09:00:26.389Z,6.23
2019-01-26T09:03:15.926Z,5.90
2019-01-26T09:06:06.233Z,5.20
2019-01-26T09:08:36.440Z,5.73
2019-01-26T09:11:06.904Z,4.73
2019-01-26T09:13:37.193Z,5.87
2019-01-26T09:16:07.562Z,5.03
2019-01-26T09:18:43.901Z,5.60
2019-01-26T09:21:14.221Z,5.10
2019-01-26T09:23:58.051Z,5.50
2019-01-26T09:26:28.365Z,5.50
2019-01-26T09:32:00.743Z,5.07
2019-01-26T09:34:31.098Z,5.13
2019-01-26T09:37:01.571Z,5.83
2019-01-26T09:45:28.896Z,4.60
2019-01-26T09:47:59.269Z,5.70
2019-01-26T09:50:29.623Z,6.10
2019-01-26T09:53:00.229Z,5.63
2019-01-26T10:01:17.545Z,5.10
2019-01-26T10:03:49.430Z,4.63
2019-01-26T10:12:06.984Z,4.63
2019-01-26T10:14:39.206Z,4.63
2019-01-26T10:17:09.551Z,4.63
2019-01-26T10:19:40.079Z,4.37
2019-01-26T10:25:12.897Z,5.03
2019-01-26T10:27:43.160Z,4.70
2019-01-26T10:30:37.450Z,4.97
2019-01-26T10:33:07.695Z,5.93
2019-01-26T10:35:57.237Z,5.20
2019-01-26T10:38:27.599Z,4.87
2019-01-26T10:41:16.854Z,5.00
2019-01-26T10:44:06.484Z,6.30
2019-01-26T10:46:37.029Z,5.83
2019-01-26T10:49:07.320Z,5.60
2019-01-26T10:51:37.589Z,6.40
2019-01-26T10:54:26.773Z,5.53
2019-01-26T10:56:57.127Z,5.40
2019-01-26T10:59:33.265Z,6.93
2019-01-26T11:04:51.139Z,5.30
2019-01-26T11:10:06.360Z,4.80
2019-01-26T11:15:26.226Z,5.17
2019-01-26T11:17:56.687Z,5.87
2019-01-26T11:20:26.951Z,5.17
2019-01-26T11:22:57.735Z,5.43
2019-01-26T11:25:46.028Z,4.93
2019-01-26T11:28:16.466Z,5.00
2019-01-26T11:30:46.860Z,4.33
2019-01-26T11:33:17.120Z,4.20
2019-01-26T11:35:47.461Z,4.73
2019-01-26T11:38:17.747Z,4.40
2019-01-26T11:40:48.107Z,5.47
2019-01-26T11:46:33.223Z,4.90
2019-01-26T11:49:04.195Z,4.40
2019-01-26T11:51:53.413Z,4.60
2019-01-26T11:54:23.716Z,4.93
2019-01-26T12:00:19.210Z,4.57
2019-01-26T12:05:51.479Z,3.93
2019-01-26T12:08:21.750Z,3.47
2019-01-26T12:13:39.138Z,3.97
2019-01-26T12:16:10.177Z,3.50
2019-01-26T12:18:40.462Z,3.80
2019-01-26T12:21:12.767Z,4.10
2019-01-26T12:23:43.047Z,4.33
2019-01-26T12:29:11.623Z,3.87
2019-01-26T12:31:41.844Z,3.93
2019-01-26T12:34:12.151Z,3.70
2019-01-26T12:36:42.386Z,3.50
2019-01-26T12:39:12.779Z,4.30
2019-01-26T12:41:43.144Z,3.90
2019-01-26T12:44:13.494Z,3.97
2019-01-26T12:46:43.746Z,4.57
2019-01-26T12:49:14.045Z,3.47
2019-01-26T12:51:50.656Z,4.43
2019-01-26T12:54:20.961Z,4.57
2019-01-26T12:56:51.216Z,4.03
2019-01-26T12:59:21.410Z,4.67
2019-01-26T13:01:52.736Z,4.60
2019-01-26T13:04:23.047Z,4.50
2019-01-26T13:10:03.864Z,4.73
2019-01-26T13:12:34.160Z,5.47
2019-01-26T13:15:04.963Z,4.80
2019-01-26T13:17:35.198Z,4.23
2019-01-26T13:23:08.707Z,4.37
2019-01-26T13:28:30.343Z,4.70
2019-01-26T13:31:00.568Z,4.03
2019-01-26T13:33:30.912Z,4.03
2019-01-26T13:36:01.174Z,4.23
2019-01-26T13:38:31.404Z,4.80
2019-01-26T13:43:57.261Z,4.60
2019-01-26T13:46:27.536Z,4.60
2019-01-26T13:48:57.752Z,4.83
2019-01-26T13:51:27.942Z,4.77
2019-01-26T13:53:58.174Z,4.80
2019-01-26T13:56:28.391Z,4.70
2019-01-26T13:58:58.643Z,4.77
2019-01-26T14:01:29.078Z,4.30
2019-01-26T14:03:59.305Z,4.30
2019-01-26T14:06:29.521Z,4.70
2019-01-26T14:08:59.742Z,4.90
2019-01-26T14:11:30.020Z,4.90
2019-01-26T14:14:00.239Z,5.93
2019-01-26T14:19:25.994Z,4.83
2019-01-26T14:21:56.275Z,4.60
2019-01-26T14:24:26.622Z,4.77
2019-01-26T14:26:56.841Z,5.10
2019-01-26T14:29:40.795Z,5.63
2019-01-26T14:32:11.095Z,4.67
2019-01-26T14:34:41.364Z,4.67
2019-01-26T14:37:11.571Z,4.30
2019-01-26T14:39:41.773Z,4.83
2019-01-26T14:42:12.006Z,4.53
2019-01-26T14:44:44.615Z,5.50
2019-01-26T14:47:14.926Z,5.80
2019-01-26T14:52:27.877Z,6.53
2019-01-26T14:54:58.192Z,5.70
2019-01-26T14:57:28.424Z,9.80
2019-01-26T14:59:58.652Z,7.37
2019-01-26T15:02:28.884Z,6.03
2019-01-26T15:04:59.159Z,5.87
2019-01-26T15:07:53.577Z,5.03
2019-01-26T15:10:23.757Z,4.83
2019-01-26T15:12:53.995Z,4.90
2019-01-26T15:18:34.631Z,5.57
2019-01-26T15:24:07.091Z,5.20
2019-01-26T15:26:37.363Z,4.67
2019-01-26T15:29:07.649Z,4.40
2019-01-26T15:31:50.214Z,4.40
2019-01-26T15:34:20.415Z,4.57
2019-01-26T15:36:50.714Z,3.93
2019-01-26T15:39:21.144Z,5.17
2019-01-26T15:41:51.420Z,6.73
2019-01-26T15:44:21.640Z,7.43
2019-01-26T15:46:51.923Z,4.57
2019-01-26T15:49:22.199Z,4.07
2019-01-26T15:51:52.446Z,4.03
2019-01-26T15:54:24.947Z,4.73
2019-01-26T15:56:55.223Z,5.70
2019-01-26T15:59:25.900Z,4.77
2019-01-26T16:01:56.338Z,5.97
2019-01-26T16:04:29.063Z,6.60
2019-01-26T16:06:59.290Z,8.93
2019-01-26T16:09:29.554Z,6.73
2019-01-26T16:14:59.494Z,4.67
2019-01-26T16:17:29.718Z,4.87
2019-01-26T16:19:59.989Z,4.83
2019-01-26T16:22:30.297Z,4.30
2019-01-26T16:25:01.455Z,5.27
2019-01-26T16:27:31.772Z,5.00
2019-01-26T16:30:02.045Z,4.33
2019-01-26T16:32:46.637Z,3.63
2019-01-26T16:35:16.926Z,4.57
2019-01-26T16:37:47.225Z,4.93
2019-01-26T16:40:20.132Z,4.43
2019-01-26T16:42:50.643Z,4.50
2019-01-26T16:45:23.314Z,4.30
2019-01-26T16:47:53.663Z,6.50
2019-01-26T16:50:27.673Z,4.80
2019-01-26T16:53:03.797Z,4.63
2019-01-26T16:55:34.019Z,4.50
2019-01-26T16:58:06.950Z,4.30
2019-01-26T17:00:58.228Z,4.20
2019-01-26T17:03:28.647Z,4.53
2019-01-26T17:05:58.919Z,4.20
2019-01-26T17:08:29.186Z,4.07
2019-01-26T17:10:59.590Z,4.43
2019-01-26T17:13:30.230Z,4.57
2019-01-26T17:19:05.747Z,4.63
2019-01-26T17:21:36.460Z,4.60
2019-01-26T17:24:06.771Z,4.77
2019-01-26T17:26:55.992Z,4.20
2019-01-26T17:29:26.297Z,4.60
2019-01-26T17:31:56.660Z,4.90
2019-01-26T17:34:30.404Z,5.37
2019-01-26T17:37:18.619Z,4.90
2019-01-26T17:39:48.913Z,5.20
2019-01-26T17:42:19.222Z,5.30
2019-01-26T17:44:49.430Z,6.30
2019-01-26T17:47:19.919Z,5.67
2019-01-26T17:49:50.242Z,5.80
2019-01-26T17:52:20.564Z,5.53
2019-01-26T17:54:50.812Z,5.30
2019-01-26T17:57:21.064Z,5.83
2019-01-26T18:02:36.654Z,6.13
2019-01-26T18:05:08.484Z,6.10
2019-01-26T18:07:38.781Z,5.97
2019-01-26T18:10:12.567Z,5.67
2019-01-26T18:12:42.845Z,6.00
2019-01-26T18:15:13.981Z,5.63
2019-01-26T18:17:44.873Z,6.43
2019-01-26T18:25:44.287Z,6.50
2019-01-26T18:31:04.074Z,6.20
2019-01-26T18:33:34.401Z,6.10
2019-01-26T18:36:17.456Z,5.67
2019-01-26T18:38:47.757Z,6.47
2019-01-26T18:41:18.040Z,5.53
2019-01-26T18:43:48.367Z,5.70
2019-01-26T18:46:18.642Z,5.80
2019-01-26T18:48:48.923Z,5.60
2019-01-26T18:54:25.866Z,5.90
2019-01-26T18:59:37.785Z,6.50
2019-01-26T19:02:14.673Z,4.83
2019-01-26T19:05:06.288Z,6.57
2019-01-26T19:07:36.584Z,5.63
2019-01-26T19:10:07.499Z,6.53
2019-01-26T19:15:23.206Z,5.80
2019-01-26T19:17:53.475Z,5.90
2019-01-26T19:20:23.806Z,6.07
2019-01-26T19:23:14.423Z,7.10
2019-01-26T19:25:45.404Z,7.07
2019-01-26T19:28:15.710Z,6.50
2019-01-26T19:30:46.023Z,5.60
2019-01-26T19:36:18.931Z,6.50
2019-01-26T19:38:49.389Z,5.97
2019-01-26T19:41:19.701Z,6.10
2019-01-26T19:46:45.071Z,6.20
2019-01-26T19:49:15.409Z,6.43
2019-01-26T19:51:58.762Z,6.30
2019-01-26T19:54:29.107Z,6.07
2019-01-26T19:56:59.384Z,6.30
2019-01-26T19:59:30.609Z,6.53
2019-01-26T20:11:21.902Z,5.93
2019-01-26T20:19:47.298Z,6.57
2019-01-26T20:22:38.073Z,6.77
2019-01-26T20:28:05.203Z,6.13
2019-01-26T20:34:00.558Z,6.53
2019-01-26T20:36:31.037Z,7.07
2019-01-26T20:39:01.444Z,6.57
2019-01-26T20:41:33.272Z,7.00
2019-01-26T20:44:03.543Z,7.57
2019-01-26T20:46:33.795Z,6.90
2019-01-26T20:49:04.151Z,7.30
2019-01-26T20:51:34.433Z,6.50
2019-01-26T20:56:47.784Z,6.83
2019-01-26T21:02:19.940Z,6.73
2019-01-26T21:04:50.166Z,6.47
2019-01-26T21:07:20.673Z,6.70
2019-01-26T21:18:08.004Z,7.17
2019-01-26T21:20:38.303Z,6.73
2019-01-26T21:23:08.559Z,7.63
2019-01-26T21:25:45.318Z,8.30
2019-01-26T21:28:15.942Z,7.57
2019-01-26T21:30:46.341Z,7.77
2019-01-26T21:36:12.029Z,7.73
2019-01-26T21:38:42.555Z,7.13
2019-01-26T21:41:13.011Z,7.53
2019-01-26T21:43:43.309Z,8.07
2019-01-26T21:46:13.552Z,7.63
2019-01-26T21:48:43.824Z,7.57
2019-01-26T21:57:07.859Z,7.77
2019-01-26T21:59:38.102Z,7.63
2019-01-26T22:04:51.499Z,7.50
2019-01-26T22:07:21.802Z,7.40
2019-01-26T22:09:52.108Z,6.60
2019-01-26T22:12:22.332Z,6.87
2019-01-26T22:14:53.026Z,7.50
2019-01-26T22:17:23.232Z,7.57
2019-01-26T22:19:53.505Z,6.83
2019-01-26T22:28:09.275Z,5.17
2019-01-26T22:30:39.577Z,5.70
2019-01-26T22:33:09.992Z,5.20
2019-01-26T22:35:40.258Z,5.57
2019-01-26T22:38:10.528Z,5.27
2019-01-26T22:40:57.484Z,5.53
2019-01-26T22:43:27.731Z,5.30
2019-01-26T22:45:58.042Z,4.40
2019-01-26T22:48:28.294Z,5.33
2019-01-26T22:51:13.676Z,5.13
2019-01-26T22:53:43.931Z,4.83
2019-01-26T22:56:14.197Z,4.70
2019-01-26T22:58:44.522Z,4.80
2019-01-26T23:05:07.014Z,4.20
2019-01-26T23:08:01.932Z,4.77
2019-01-26T23:11:12.124Z,4.40
2019-01-26T23:14:21.597Z,4.97
2019-01-26T23:17:30.228Z,4.23
2019-01-26T23:20:25.980Z,4.63
2019-01-26T23:23:28.696Z,4.87
2019-01-26T23:26:38.581Z,4.60
2019-01-26T23:29:47.216Z,4.17
2019-01-26T23:32:17.450Z,4.53
2019-01-26T23:37:29.698Z,5.33
2019-01-26T23:42:49.606Z,4.87
2019-01-26T23:45:19.943Z,5.57
2019-01-26T23:47:50.227Z,5.30
2019-01-26T23:50:20.475Z,5.00
2019-01-26T23:52:50.708Z,5.37
2019-01-26T23:55:21.009Z,4.67
2019-01-26T23:57:51.220Z,4.30
